createdAt,value
2022-11-07T00:01:15.829Z,19.33
2022-11-07T00:03:42.706Z,18.92
2022-11-07T00:06:09.714Z,18.60
2022-11-07T00:08:36.453Z,19.10
2022-11-07T00:11:04.915Z,18.65
2022-11-07T00:13:32.308Z,18.65
2022-11-07T00:16:04.031Z,19.55
2022-11-07T00:18:30.866Z,19.10
2022-11-07T00:21:05.085Z,18.60
2022-11-07T00:23:31.909Z,19.70
2022-11-07T00:26:07.306Z,18.23
2022-11-07T00:28:34.955Z,18.90
2022-11-07T00:31:01.650Z,18.38
2022-11-07T00:33:28.284Z,18.20
2022-11-07T00:35:54.924Z,17.50
2022-11-07T00:38:21.773Z,17.88
2022-11-07T00:40:56.207Z,17.95
2022-11-07T00:43:23.321Z,18.67
2022-11-07T00:45:50.261Z,18.17
2022-11-07T00:48:17.319Z,18.48
2022-11-07T00:50:43.929Z,18.48
2022-11-07T00:53:10.530Z,18.58
2022-11-07T00:55:37.410Z,18.33
2022-11-07T00:58:05.238Z,18.48
2022-11-07T01:00:34.184Z,17.85
2022-11-07T01:03:19.321Z,18.15
2022-11-07T01:05:56.241Z,17.80
2022-11-07T01:08:22.994Z,18.88
2022-11-07T01:10:49.629Z,17.92
2022-11-07T01:13:16.781Z,18.25
2022-11-07T01:15:43.863Z,18.30
2022-11-07T01:18:10.581Z,18.10
2022-11-07T01:20:37.366Z,19.05
2022-11-07T01:23:04.014Z,18.23
2022-11-07T01:25:30.613Z,18.05
2022-11-07T01:27:57.259Z,17.63
2022-11-07T01:30:23.876Z,17.95
2022-11-07T01:32:50.487Z,18.73
2022-11-07T01:35:17.079Z,18.17
2022-11-07T01:37:44.226Z,17.67
2022-11-07T01:40:11.251Z,18.40
2022-11-07T01:42:37.901Z,18.27
2022-11-07T01:45:05.026Z,18.35
2022-11-07T01:47:36.788Z,18.70
2022-11-07T01:50:06.110Z,18.20
2022-11-07T01:52:43.001Z,18.40
2022-11-07T01:55:32.655Z,18.38
2022-11-07T01:58:06.929Z,17.88
2022-11-07T02:00:36.229Z,18.23
2022-11-07T02:03:07.665Z,17.65
2022-11-07T02:05:54.800Z,17.40
2022-11-07T02:08:22.679Z,17.30
2022-11-07T02:10:50.049Z,18.27
2022-11-07T02:13:25.173Z,17.15
2022-11-07T02:15:52.241Z,17.77
2022-11-07T02:18:19.160Z,17.63
2022-11-07T02:20:46.427Z,17.20
2022-11-07T02:23:26.382Z,17.80
2022-11-07T02:25:54.030Z,16.70
2022-11-07T02:28:21.726Z,16.90
2022-11-07T02:30:48.311Z,16.73
2022-11-07T02:33:23.105Z,16.95
2022-11-07T02:35:51.901Z,16.48
2022-11-07T02:38:27.344Z,17.23
2022-11-07T02:41:29.210Z,17.15
2022-11-07T02:44:04.408Z,17.35
2022-11-07T02:46:32.357Z,17.25
2022-11-07T02:49:00.869Z,16.92
2022-11-07T02:51:28.244Z,17.42
2022-11-07T02:53:55.238Z,16.73
2022-11-07T02:56:23.081Z,16.90
2022-11-07T02:58:49.834Z,16.60
2022-11-07T03:01:16.579Z,16.80
2022-11-07T03:03:47.392Z,17.10
2022-11-07T03:06:25.143Z,16.70
2022-11-07T03:08:52.121Z,16.25
2022-11-07T03:11:19.672Z,16.17
2022-11-07T03:13:50.425Z,16.40
2022-11-07T03:16:18.183Z,16.50
2022-11-07T03:18:44.883Z,16.63
2022-11-07T03:21:11.523Z,17.48
2022-11-07T03:23:38.128Z,16.58
2022-11-07T03:26:05.101Z,16.42
2022-11-07T03:28:32.610Z,16.67
2022-11-07T03:31:04.339Z,16.38
2022-11-07T03:33:31.098Z,16.58
2022-11-07T03:35:57.970Z,16.88
2022-11-07T03:38:24.655Z,16.40
2022-11-07T03:40:51.311Z,16.50
2022-11-07T03:43:18.118Z,16.27
2022-11-07T03:45:44.735Z,16.73
2022-11-07T03:48:11.353Z,17.05
2022-11-07T03:50:37.997Z,15.93
2022-11-07T03:53:04.645Z,16.75
2022-11-07T03:55:31.210Z,16.42
2022-11-07T03:57:57.833Z,15.13
2022-11-07T04:00:24.417Z,15.80
2022-11-07T04:02:51.181Z,15.25
2022-11-07T04:05:18.121Z,15.82
2022-11-07T04:07:44.751Z,15.32
2022-11-07T04:10:11.537Z,15.45
2022-11-07T04:12:56.756Z,15.57
2022-11-07T04:15:41.900Z,15.60
2022-11-07T04:18:08.536Z,15.80
2022-11-07T04:20:35.166Z,15.93
2022-11-07T04:23:01.774Z,16.15
2022-11-07T04:26:03.963Z,16.60
2022-11-07T04:28:30.757Z,16.27
2022-11-07T04:30:57.713Z,17.65
2022-11-07T04:33:24.425Z,16.77
2022-11-07T04:35:51.099Z,17.15
2022-11-07T04:38:17.716Z,16.92
2022-11-07T04:40:44.331Z,17.05
2022-11-07T04:43:11.098Z,17.05
2022-11-07T04:45:38.943Z,17.65
2022-11-07T04:48:06.067Z,17.30
2022-11-07T04:50:32.709Z,17.98
2022-11-07T04:52:59.321Z,17.40
2022-11-07T04:55:27.835Z,18.00
2022-11-07T04:57:54.513Z,17.42
2022-11-07T05:00:21.415Z,18.02
2022-11-07T05:02:48.860Z,17.15
2022-11-07T05:05:16.265Z,17.80
2022-11-07T05:07:43.525Z,17.90
2022-11-07T05:10:18.892Z,17.77
2022-11-07T05:12:45.941Z,17.75
2022-11-07T05:15:12.677Z,17.70
2022-11-07T05:17:39.269Z,17.90
2022-11-07T05:20:06.444Z,17.63
2022-11-07T05:22:56.157Z,17.90
2022-11-07T05:25:23.494Z,17.83
2022-11-07T05:27:55.313Z,17.38
2022-11-07T05:30:21.919Z,19.60
2022-11-07T05:32:48.717Z,18.60
2022-11-07T05:35:15.397Z,18.75
2022-11-07T05:37:41.984Z,19.23
2022-11-07T05:40:09.109Z,18.70
2022-11-07T05:42:35.707Z,18.60
2022-11-07T05:45:02.337Z,18.92
2022-11-07T05:47:28.980Z,19.80
2022-11-07T05:49:55.570Z,18.90
2022-11-07T05:52:22.198Z,18.70
2022-11-07T05:54:48.997Z,18.77
2022-11-07T05:57:15.610Z,18.25
2022-11-07T05:59:42.270Z,17.83
2022-11-07T06:02:08.994Z,18.17
2022-11-07T06:04:35.885Z,17.65
2022-11-07T06:07:02.454Z,18.35
2022-11-07T06:09:29.054Z,18.80
2022-11-07T06:11:55.718Z,18.60
2022-11-07T06:14:22.443Z,19.10
2022-11-07T06:16:49.098Z,19.42
2022-11-07T06:19:15.769Z,19.02
2022-11-07T06:21:42.442Z,18.92
2022-11-07T06:24:15.023Z,19.88
2022-11-07T06:26:42.173Z,19.10
2022-11-07T06:29:08.760Z,18.60
2022-11-07T06:31:35.468Z,18.80
2022-11-07T06:34:02.066Z,19.52
2022-11-07T06:36:29.441Z,19.33
2022-11-07T06:38:56.076Z,18.63
2022-11-07T06:41:22.682Z,18.48
2022-11-07T06:43:52.030Z,19.92
2022-11-07T06:46:19.809Z,19.15
2022-11-07T06:48:46.449Z,19.17
2022-11-07T06:51:13.337Z,19.40
2022-11-07T06:53:40.349Z,19.38
2022-11-07T06:56:15.952Z,19.98
2022-11-07T06:58:42.929Z,20.13
2022-11-07T07:01:13.510Z,19.42
2022-11-07T07:03:41.311Z,19.88
2022-11-07T07:06:12.325Z,19.90
2022-11-07T07:08:39.374Z,20.25
2022-11-07T07:11:09.725Z,20.02
2022-11-07T07:13:37.150Z,20.63
2022-11-07T07:16:04.673Z,20.15
2022-11-07T07:18:31.453Z,19.45
2022-11-07T07:21:12.237Z,20.85
2022-11-07T07:23:39.690Z,19.55
2022-11-07T07:26:09.866Z,19.95
2022-11-07T07:28:37.220Z,19.80
2022-11-07T07:31:15.996Z,20.30
2022-11-07T07:33:43.922Z,20.70
2022-11-07T07:36:13.283Z,21.30
2022-11-07T07:38:43.736Z,20.65
2022-11-07T07:41:10.762Z,21.15
2022-11-07T07:43:37.356Z,21.05
2022-11-07T07:46:07.127Z,21.65
2022-11-07T07:48:33.952Z,21.45
2022-11-07T07:51:00.765Z,22.13
2022-11-07T07:53:27.465Z,21.08
2022-11-07T07:55:58.426Z,21.55
2022-11-07T07:58:26.234Z,20.67
2022-11-07T08:00:54.361Z,20.80
2022-11-07T08:03:21.195Z,21.13
2022-11-07T08:05:56.783Z,21.58
2022-11-07T08:08:24.174Z,21.23
2022-11-07T08:10:56.764Z,21.48
2022-11-07T08:13:26.734Z,21.08
2022-11-07T08:15:53.995Z,21.42
2022-11-07T08:18:24.449Z,21.83
2022-11-07T08:20:53.317Z,21.40
2022-11-07T08:23:20.556Z,21.17
2022-11-07T08:25:52.405Z,22.30
2022-11-07T08:28:25.743Z,20.70
2022-11-07T08:31:02.928Z,21.55
2022-11-07T08:33:29.954Z,21.67
2022-11-07T08:36:01.935Z,20.98
2022-11-07T08:38:30.257Z,21.65
2022-11-07T08:40:57.808Z,21.20
2022-11-07T08:43:25.126Z,20.17
2022-11-07T08:45:53.729Z,21.20
2022-11-07T08:48:21.545Z,21.58
2022-11-07T08:50:55.896Z,20.52
2022-11-07T08:53:24.024Z,20.40
2022-11-07T08:55:50.673Z,22.23
2022-11-07T08:58:17.960Z,21.63
2022-11-07T09:00:44.999Z,23.75
2022-11-07T09:05:59.305Z,23.08
2022-11-07T09:08:25.993Z,22.08
2022-11-07T09:10:52.569Z,21.92
2022-11-07T09:13:20.614Z,21.33
2022-11-07T09:15:51.104Z,21.67
2022-11-07T09:18:19.507Z,21.52
2022-11-07T09:20:46.316Z,21.52
2022-11-07T09:23:13.547Z,21.70
2022-11-07T09:25:40.469Z,21.58
2022-11-07T09:28:07.408Z,21.25
2022-11-07T09:30:34.038Z,22.35
2022-11-07T09:33:00.909Z,21.35
2022-11-07T09:35:28.016Z,21.38
2022-11-07T09:37:54.926Z,21.58
2022-11-07T09:40:27.078Z,21.55
2022-11-07T09:43:08.870Z,22.92
2022-11-07T09:45:49.546Z,21.35
2022-11-07T09:48:22.203Z,21.10
2022-11-07T09:50:50.384Z,20.83
2022-11-07T09:53:35.843Z,20.98
2022-11-07T09:58:40.653Z,20.77
2022-11-07T10:01:19.406Z,21.45
2022-11-07T10:04:18.205Z,21.17
2022-11-07T10:06:45.709Z,21.13
2022-11-07T10:09:34.481Z,21.30
2022-11-07T10:12:30.174Z,19.65
2022-11-07T10:15:10.406Z,19.80
2022-11-07T10:18:17.730Z,21.08
2022-11-07T10:21:16.067Z,20.05
2022-11-07T10:24:19.775Z,20.55
2022-11-07T10:26:46.427Z,19.80
2022-11-07T10:29:20.545Z,19.92
2022-11-07T10:31:57.509Z,19.47
2022-11-07T10:34:41.529Z,20.73
2022-11-07T10:37:09.545Z,19.08
2022-11-07T10:39:36.153Z,18.85
2022-11-07T10:42:10.824Z,20.55
2022-11-07T10:44:40.549Z,20.70
2022-11-07T10:47:22.417Z,21.00
2022-11-07T10:49:57.604Z,21.55
2022-11-07T10:52:25.199Z,20.20
2022-11-07T10:54:51.858Z,20.08
2022-11-07T10:57:20.842Z,19.50
2022-11-07T10:59:57.511Z,21.23
2022-11-07T11:02:27.435Z,20.17
2022-11-07T11:05:00.721Z,21.02
2022-11-07T11:07:33.826Z,20.77
2022-11-07T11:10:00.500Z,22.42
2022-11-07T11:12:34.729Z,21.70
2022-11-07T11:15:19.178Z,20.23
2022-11-07T11:17:46.800Z,21.52
2022-11-07T11:20:54.822Z,21.60
2022-11-07T11:23:25.082Z,21.02
2022-11-07T11:25:58.350Z,21.60
2022-11-07T11:28:33.225Z,20.17
2022-11-07T11:31:07.200Z,22.02
2022-11-07T11:33:47.957Z,22.00
2022-11-07T11:36:21.533Z,21.52
2022-11-07T11:38:54.566Z,21.10
2022-11-07T11:41:53.156Z,21.63
2022-11-07T11:44:37.667Z,22.13
2022-11-07T11:47:22.581Z,21.40
2022-11-07T11:49:54.767Z,21.65
2022-11-07T11:52:24.043Z,21.42
2022-11-07T11:54:52.192Z,20.45
2022-11-07T11:58:32.726Z,20.73
2022-11-07T12:01:14.293Z,20.50
2022-11-07T12:03:57.697Z,22.23
2022-11-07T12:06:38.665Z,20.65
2022-11-07T12:09:17.297Z,21.75
2022-11-07T12:12:11.285Z,20.73
2022-11-07T12:14:43.980Z,24.15
2022-11-07T12:17:26.934Z,20.85
2022-11-07T12:20:17.875Z,18.48
2022-11-07T12:23:11.246Z,16.75
2022-11-07T12:25:43.420Z,15.65
2022-11-07T12:28:34.911Z,14.63
2022-11-07T12:31:10.356Z,14.20
2022-11-07T12:33:42.466Z,13.80
2022-11-07T12:36:29.155Z,14.00
2022-11-07T12:39:20.011Z,13.02
2022-11-07T12:42:13.786Z,14.07
2022-11-07T12:45:14.078Z,15.98
2022-11-07T12:48:06.250Z,15.20
2022-11-07T12:51:21.044Z,15.18
2022-11-07T12:54:15.251Z,16.00
2022-11-07T12:56:45.300Z,17.25
2022-11-07T12:59:26.852Z,18.02
2022-11-07T13:02:36.838Z,18.15
2022-11-07T13:05:27.387Z,18.65
2022-11-07T13:08:00.493Z,19.13
2022-11-07T13:10:50.804Z,19.40
2022-11-07T13:13:39.407Z,20.30
2022-11-07T13:16:24.270Z,17.98
2022-11-07T13:18:50.890Z,18.45
2022-11-07T13:21:17.525Z,17.52
2022-11-07T13:23:44.813Z,16.63
2022-11-07T13:26:32.935Z,18.80
2022-11-07T13:29:00.508Z,19.88
2022-11-07T13:31:38.558Z,20.38
2022-11-07T13:34:20.465Z,21.27
2022-11-07T13:36:49.818Z,22.58
2022-11-07T13:39:18.005Z,22.17
2022-11-07T13:41:46.010Z,22.67
2022-11-07T13:44:22.293Z,23.00
2022-11-07T13:47:04.192Z,22.90
2022-11-07T13:49:43.154Z,23.30
2022-11-07T13:52:33.677Z,22.55
2022-11-07T13:55:11.712Z,22.63
2022-11-07T13:57:42.847Z,24.08
2022-11-07T14:00:15.831Z,23.90
2022-11-07T14:02:57.014Z,24.05
2022-11-07T14:05:30.154Z,25.15
2022-11-07T14:08:01.188Z,25.30
2022-11-07T14:10:42.933Z,24.30
2022-11-07T14:13:20.563Z,23.75
2022-11-07T14:15:49.511Z,24.25
2022-11-07T14:18:18.477Z,24.42
2022-11-07T14:20:47.339Z,25.05
2022-11-07T14:23:14.054Z,24.88
2022-11-07T14:25:40.680Z,25.35
2022-11-07T14:28:16.023Z,26.40
2022-11-07T14:30:43.005Z,24.83
2022-11-07T14:33:21.012Z,26.67
2022-11-07T14:35:50.109Z,25.63
2022-11-07T14:38:27.087Z,21.98
2022-11-07T14:40:55.974Z,23.70
2022-11-07T14:43:25.269Z,21.80
2022-11-07T14:46:16.852Z,22.20
2022-11-07T14:48:45.088Z,19.30
2022-11-07T14:51:14.671Z,20.33
2022-11-07T14:53:59.359Z,19.77
2022-11-07T14:56:31.485Z,19.63
2022-11-07T14:58:58.769Z,18.42
2022-11-07T15:01:32.200Z,19.33
2022-11-07T15:04:34.194Z,17.95
2022-11-07T15:07:11.146Z,19.27
2022-11-07T15:09:38.073Z,18.58
2022-11-07T15:12:15.629Z,19.38
2022-11-07T15:14:42.393Z,19.40
2022-11-07T15:17:24.761Z,18.70
2022-11-07T15:19:57.775Z,18.98
2022-11-07T15:22:35.298Z,18.80
2022-11-07T15:25:02.033Z,19.15
2022-11-07T15:27:32.550Z,19.55
2022-11-07T15:30:05.462Z,19.48
2022-11-07T15:32:41.318Z,19.92
2022-11-07T15:35:42.331Z,18.75
2022-11-07T15:38:04.473Z,19.55
2022-11-07T15:40:31.531Z,19.98
2022-11-07T15:42:58.160Z,19.40
2022-11-07T15:45:24.898Z,19.88
2022-11-07T15:47:51.728Z,19.27
2022-11-07T15:50:21.434Z,21.02
2022-11-07T15:52:48.919Z,19.35
2022-11-07T15:55:20.786Z,19.45
2022-11-07T15:57:50.199Z,19.35
2022-11-07T16:00:21.905Z,19.00
2022-11-07T16:02:48.791Z,19.52
2022-11-07T16:05:16.062Z,19.33
2022-11-07T16:07:43.844Z,19.45
2022-11-07T16:10:20.614Z,18.40
2022-11-07T16:12:48.302Z,18.67
2022-11-07T16:15:17.273Z,18.17
2022-11-07T16:17:44.472Z,19.02
2022-11-07T16:20:20.405Z,19.17
2022-11-07T16:22:48.568Z,20.15
2022-11-07T16:25:21.403Z,18.67
2022-11-07T16:28:03.088Z,19.17
2022-11-07T16:30:29.948Z,18.48
2022-11-07T16:32:56.581Z,18.67
2022-11-07T16:35:23.492Z,18.90
2022-11-07T16:37:50.147Z,19.88
2022-11-07T16:40:19.390Z,19.65
2022-11-07T16:42:46.224Z,20.92
2022-11-07T16:45:19.005Z,20.52
2022-11-07T16:47:45.786Z,19.70
2022-11-07T16:50:16.618Z,19.88
2022-11-07T16:52:43.258Z,20.48
2022-11-07T16:55:17.586Z,20.30
2022-11-07T16:57:45.159Z,37.63
2022-11-07T17:00:21.550Z,32.38
2022-11-07T17:02:48.514Z,19.83
2022-11-07T17:05:15.602Z,19.30
2022-11-07T17:07:42.338Z,18.45
2022-11-07T17:10:15.133Z,18.58
2022-11-07T17:12:41.913Z,20.08
2022-11-07T17:15:09.537Z,18.50
2022-11-07T17:17:36.505Z,18.83
2022-11-07T17:20:03.221Z,19.50
2022-11-07T17:22:29.864Z,20.48
2022-11-07T17:24:56.445Z,19.13
2022-11-07T17:27:25.264Z,19.83
2022-11-07T17:29:53.288Z,19.08
2022-11-07T17:32:20.346Z,19.15
2022-11-07T17:34:59.282Z,19.65
2022-11-07T17:37:31.302Z,23.40
2022-11-07T17:39:57.914Z,20.95
2022-11-07T17:42:24.637Z,20.05
2022-11-07T17:44:51.254Z,18.08
2022-11-07T17:47:28.789Z,19.50
2022-11-07T17:49:55.824Z,18.67
2022-11-07T17:52:22.686Z,18.45
2022-11-07T17:54:49.433Z,18.70
2022-11-07T17:57:16.050Z,18.55
2022-11-07T17:59:45.898Z,19.15
2022-11-07T18:02:18.445Z,19.13
2022-11-07T18:04:46.188Z,19.38
2022-11-07T18:07:12.925Z,19.25
2022-11-07T18:09:42.977Z,19.60
2022-11-07T18:12:10.769Z,19.52
2022-11-07T18:14:37.866Z,19.42
2022-11-07T18:17:04.897Z,20.38
2022-11-07T18:19:31.578Z,19.88
2022-11-07T18:21:59.333Z,19.80
2022-11-07T18:24:25.941Z,20.05
2022-11-07T18:26:52.928Z,19.35
2022-11-07T18:29:19.583Z,19.65
2022-11-07T18:31:50.482Z,20.52
2022-11-07T18:34:17.380Z,19.40
2022-11-07T18:36:45.665Z,18.40
2022-11-07T18:39:21.357Z,18.35
2022-11-07T18:41:48.762Z,17.77
2022-11-07T18:44:15.872Z,18.98
2022-11-07T18:46:42.891Z,17.73
2022-11-07T18:49:11.129Z,18.00
2022-11-07T18:51:37.793Z,18.52
2022-11-07T18:54:05.110Z,17.95
2022-11-07T18:56:31.857Z,17.83
2022-11-07T18:58:58.821Z,17.65
2022-11-07T19:01:28.610Z,17.23
2022-11-07T19:03:57.187Z,16.98
2022-11-07T19:06:26.396Z,18.52
2022-11-07T19:08:53.576Z,17.10
2022-11-07T19:11:28.553Z,18.42
2022-11-07T19:16:23.337Z,18.35
2022-11-07T19:18:51.198Z,19.25
2022-11-07T19:21:20.498Z,18.63
2022-11-07T19:23:48.599Z,18.50
2022-11-07T19:26:15.365Z,19.42
2022-11-07T19:28:42.036Z,19.23
2022-11-07T19:31:12.671Z,18.35
2022-11-07T19:33:41.038Z,18.17
2022-11-07T19:36:12.398Z,18.73
2022-11-07T19:38:39.060Z,19.52
2022-11-07T19:41:07.092Z,19.23
2022-11-07T19:43:34.847Z,19.13
2022-11-07T19:46:11.160Z,19.33
2022-11-07T19:48:37.797Z,18.73
2022-11-07T19:51:09.609Z,18.50
2022-11-07T19:53:36.375Z,18.90
2022-11-07T19:56:13.061Z,18.98
2022-11-07T19:58:40.262Z,19.10
2022-11-07T20:01:12.457Z,18.63
2022-11-07T20:03:39.416Z,19.67
2022-11-07T20:06:10.803Z,18.25
2022-11-07T20:08:38.304Z,17.77
2022-11-07T20:11:05.033Z,17.85
2022-11-07T20:13:31.699Z,18.13
2022-11-07T20:15:58.429Z,18.60
2022-11-07T20:18:25.189Z,18.33
2022-11-07T20:20:59.141Z,17.90
2022-11-07T20:23:25.728Z,17.52
2022-11-07T20:25:52.440Z,17.42
2022-11-07T20:28:19.097Z,17.52
2022-11-07T20:30:45.697Z,17.60
2022-11-07T20:33:12.325Z,18.80
2022-11-07T20:35:38.940Z,17.13
2022-11-07T20:38:06.004Z,17.77
2022-11-07T20:40:33.024Z,18.80
2022-11-07T20:43:01.622Z,18.63
2022-11-07T20:45:30.181Z,17.48
2022-11-07T20:47:56.770Z,20.30
2022-11-07T20:50:23.349Z,18.75
2022-11-07T20:52:49.969Z,20.58
2022-11-07T20:55:16.914Z,18.48
2022-11-07T20:57:43.956Z,18.10
2022-11-07T21:00:11.569Z,19.40
2022-11-07T21:02:38.162Z,18.92
2022-11-07T21:05:17.714Z,18.90
2022-11-07T21:07:45.042Z,18.95
2022-11-07T21:10:11.676Z,19.02
2022-11-07T21:12:38.294Z,19.00
2022-11-07T21:15:05.534Z,19.05
2022-11-07T21:17:32.424Z,19.58
2022-11-07T21:19:59.077Z,19.13
2022-11-07T21:22:29.403Z,18.48
2022-11-07T21:24:56.943Z,20.02
2022-11-07T21:27:23.583Z,18.75
2022-11-07T21:29:50.197Z,18.75
2022-11-07T21:32:16.793Z,18.50
2022-11-07T21:34:45.183Z,18.70
2022-11-07T21:37:11.914Z,18.88
2022-11-07T21:39:38.552Z,18.60
2022-11-07T21:42:05.362Z,19.50
2022-11-07T21:44:31.970Z,18.77
2022-11-07T21:46:58.597Z,18.98
2022-11-07T21:49:25.186Z,18.73
2022-11-07T21:51:51.860Z,19.58
2022-11-07T21:54:18.781Z,18.90
2022-11-07T21:56:45.393Z,19.23
2022-11-07T21:59:12.081Z,18.60
2022-11-07T22:01:40.085Z,19.63
2022-11-07T22:04:11.097Z,24.73
2022-11-07T22:06:41.827Z,23.20
2022-11-07T22:09:10.130Z,18.95
2022-11-07T22:11:36.992Z,20.48
2022-11-07T22:14:04.405Z,18.33
2022-11-07T22:16:31.755Z,18.48
2022-11-07T22:18:59.087Z,18.67
2022-11-07T22:21:25.713Z,18.33
2022-11-07T22:23:52.345Z,19.15
2022-11-07T22:26:24.153Z,18.38
2022-11-07T22:28:51.382Z,19.33
2022-11-07T22:31:19.106Z,18.55
2022-11-07T22:33:45.975Z,18.27
2022-11-07T22:36:13.481Z,18.73
2022-11-07T22:38:40.578Z,18.50
2022-11-07T22:41:18.204Z,18.00
2022-11-07T22:43:44.877Z,18.92
2022-11-07T22:46:13.878Z,18.00
2022-11-07T22:48:41.181Z,17.92
2022-11-07T22:51:20.018Z,19.00
2022-11-07T22:53:47.118Z,18.95
2022-11-07T22:56:18.794Z,18.77
2022-11-07T22:58:46.921Z,18.10
2022-11-07T23:01:31.527Z,19.35
2022-11-07T23:03:58.802Z,18.77
2022-11-07T23:06:27.346Z,18.85
2022-11-07T23:08:57.566Z,18.23
2022-11-07T23:11:48.909Z,19.17
2022-11-07T23:14:19.090Z,18.52
2022-11-07T23:16:51.776Z,18.85
2022-11-07T23:19:21.234Z,18.88
2022-11-07T23:21:49.190Z,18.02
2022-11-07T23:24:15.865Z,16.92
2022-11-07T23:26:42.741Z,17.83
2022-11-07T23:29:18.020Z,23.10
2022-11-07T23:31:46.882Z,18.00
2022-11-07T23:34:14.602Z,17.05
2022-11-07T23:36:43.690Z,16.73
2022-11-07T23:39:16.465Z,15.77
2022-11-07T23:41:43.498Z,15.88
2022-11-07T23:44:10.748Z,16.27
2022-11-07T23:46:56.027Z,17.83
2022-11-07T23:49:41.550Z,16.95
2022-11-07T23:52:08.416Z,16.35
2022-11-07T23:54:53.776Z,15.07
2022-11-07T23:57:20.450Z,15.10
